createdAt,value
2022-08-20T00:01:01.982Z,6.35
2022-08-20T00:03:39.669Z,6.95
2022-08-20T00:06:16.466Z,7.53
2022-08-20T00:08:44.694Z,6.35
2022-08-20T00:11:14.137Z,7.15
2022-08-20T00:13:44.439Z,6.60
2022-08-20T00:16:12.913Z,6.30
2022-08-20T00:18:41.096Z,6.03
2022-08-20T00:21:11.094Z,6.53
2022-08-20T00:23:40.279Z,7.50
2022-08-20T00:26:08.324Z,7.13
2022-08-20T00:28:35.108Z,7.10
2022-08-20T00:31:05.718Z,6.90
2022-08-20T00:33:34.227Z,7.20
2022-08-20T00:36:06.566Z,6.20
2022-08-20T00:38:35.555Z,7.55
2022-08-20T00:41:02.727Z,6.30
2022-08-20T00:43:43.150Z,6.95
2022-08-20T00:46:12.730Z,6.60
2022-08-20T00:48:42.817Z,6.10
2022-08-20T00:51:23.486Z,6.68
2022-08-20T00:53:50.427Z,6.63
2022-08-20T00:56:17.203Z,7.03
2022-08-20T00:58:45.292Z,6.28
2022-08-20T01:01:12.371Z,6.38
2022-08-20T01:03:42.212Z,5.97
2022-08-20T01:06:11.557Z,5.63
2022-08-20T01:08:39.993Z,6.40
2022-08-20T01:11:14.820Z,5.70
2022-08-20T01:13:44.745Z,6.63
2022-08-20T01:16:21.825Z,5.57
2022-08-20T01:18:51.461Z,5.70
2022-08-20T01:21:25.376Z,5.63
2022-08-20T01:24:41.927Z,5.38
2022-08-20T01:27:09.164Z,6.57
2022-08-20T01:29:39.601Z,5.57
2022-08-20T01:32:06.892Z,4.88
2022-08-20T01:34:33.654Z,5.78
2022-08-20T01:37:00.811Z,5.05
2022-08-20T01:39:32.746Z,5.15
2022-08-20T01:42:22.407Z,5.82
2022-08-20T01:44:50.084Z,5.45
2022-08-20T01:47:28.935Z,5.63
2022-08-20T01:50:02.201Z,5.30
2022-08-20T01:52:55.018Z,5.35
2022-08-20T01:55:21.985Z,5.60
2022-08-20T01:57:49.375Z,5.07
2022-08-20T02:00:22.081Z,4.95
2022-08-20T02:02:49.431Z,5.40
2022-08-20T02:05:16.382Z,5.47
2022-08-20T02:07:43.208Z,5.45
2022-08-20T02:10:12.757Z,4.65
2022-08-20T02:12:39.931Z,6.07
2022-08-20T02:15:10.370Z,5.40
2022-08-20T02:17:38.995Z,5.53
2022-08-20T02:20:16.964Z,5.97
2022-08-20T02:22:55.196Z,5.25
2022-08-20T02:25:24.408Z,4.82
2022-08-20T02:27:53.025Z,5.10
2022-08-20T02:30:27.763Z,5.80
2022-08-20T02:32:57.326Z,6.10
2022-08-20T02:35:24.796Z,5.90
2022-08-20T02:37:52.683Z,5.60
2022-08-20T02:40:27.258Z,5.50
2022-08-20T02:43:02.293Z,5.40
2022-08-20T02:45:31.381Z,5.72
2022-08-20T02:47:58.845Z,4.95
2022-08-20T02:50:26.864Z,5.90
2022-08-20T02:52:54.515Z,5.72
2022-08-20T02:55:27.394Z,5.60
2022-08-20T02:57:58.594Z,5.72
2022-08-20T03:00:27.287Z,5.38
2022-08-20T03:02:54.049Z,5.10
2022-08-20T03:05:20.964Z,5.65
2022-08-20T03:07:53.662Z,4.88
2022-08-20T03:10:32.171Z,5.85
2022-08-20T03:13:01.464Z,5.30
2022-08-20T03:15:33.163Z,5.53
2022-08-20T03:18:00.889Z,5.28
2022-08-20T03:20:27.896Z,5.38
2022-08-20T03:22:54.865Z,5.97
2022-08-20T03:25:21.892Z,6.35
2022-08-20T03:27:54.004Z,5.45
2022-08-20T03:30:23.640Z,5.45
2022-08-20T03:32:50.280Z,5.63
2022-08-20T03:35:18.935Z,6.22
2022-08-20T03:37:50.469Z,5.90
2022-08-20T03:40:22.763Z,4.72
2022-08-20T03:42:49.627Z,5.93
2022-08-20T03:45:20.379Z,6.22
2022-08-20T03:47:48.123Z,6.00
2022-08-20T03:50:23.065Z,5.90
2022-08-20T03:52:55.012Z,5.55
2022-08-20T03:55:23.162Z,6.28
2022-08-20T03:57:55.797Z,5.30
2022-08-20T04:00:31.815Z,5.88
2022-08-20T04:02:58.601Z,6.32
2022-08-20T04:05:25.571Z,6.90
2022-08-20T04:07:58.409Z,6.25
2022-08-20T04:10:30.537Z,6.70
2022-08-20T04:12:57.127Z,5.22
2022-08-20T04:15:24.691Z,5.65
2022-08-20T04:17:52.631Z,5.90
2022-08-20T04:20:23.188Z,6.40
2022-08-20T04:22:59.240Z,6.57
2022-08-20T04:25:35.889Z,6.82
2022-08-20T04:28:06.524Z,5.70
2022-08-20T04:30:33.640Z,6.22
2022-08-20T04:33:00.602Z,5.88
2022-08-20T04:35:28.069Z,6.57
2022-08-20T04:38:11.282Z,7.55
2022-08-20T04:40:56.518Z,7.00
2022-08-20T04:43:35.119Z,6.47
2022-08-20T04:46:08.614Z,7.40
2022-08-20T04:48:38.915Z,5.97
2022-08-20T04:51:10.320Z,5.95
2022-08-20T04:53:37.052Z,5.75
2022-08-20T04:56:03.914Z,5.68
2022-08-20T04:58:34.823Z,6.38
2022-08-20T05:01:08.130Z,6.68
2022-08-20T05:03:37.504Z,6.22
2022-08-20T05:06:09.636Z,5.20
2022-08-20T05:08:38.420Z,6.20
2022-08-20T05:11:32.553Z,5.70
2022-08-20T05:13:53.985Z,6.40
2022-08-20T05:16:21.312Z,5.90
2022-08-20T05:18:52.137Z,6.38
2022-08-20T05:21:21.013Z,6.72
2022-08-20T05:23:49.144Z,6.18
2022-08-20T05:26:17.130Z,6.22
2022-08-20T05:28:53.867Z,5.70
2022-08-20T05:31:31.924Z,7.32
2022-08-20T05:34:02.561Z,6.30
2022-08-20T05:36:29.755Z,6.72
2022-08-20T05:38:56.594Z,6.97
2022-08-20T05:41:28.932Z,6.35
2022-08-20T05:44:00.547Z,6.07
2022-08-20T05:46:28.354Z,7.28
2022-08-20T05:48:54.925Z,6.68
2022-08-20T05:51:26.886Z,6.20
2022-08-20T05:53:53.442Z,6.75
2022-08-20T05:56:21.645Z,5.80
2022-08-20T05:58:53.782Z,6.50
2022-08-20T06:01:20.515Z,7.32
2022-08-20T06:04:05.800Z,7.40
2022-08-20T06:06:45.156Z,7.97
2022-08-20T06:09:30.625Z,7.07
2022-08-20T06:12:04.079Z,8.60
2022-08-20T06:14:31.682Z,8.55
2022-08-20T06:17:06.030Z,10.32
2022-08-20T06:19:33.917Z,10.18
2022-08-20T06:22:02.313Z,10.63
2022-08-20T06:24:35.728Z,10.40
2022-08-20T06:27:05.284Z,10.93
2022-08-20T06:29:35.991Z,10.70
2022-08-20T06:32:02.808Z,9.90
2022-08-20T06:34:30.968Z,9.15
2022-08-20T06:36:59.451Z,9.90
2022-08-20T06:39:31.112Z,9.38
2022-08-20T06:41:58.779Z,9.68
2022-08-20T06:44:25.914Z,9.27
2022-08-20T06:46:52.888Z,9.82
2022-08-20T06:49:19.579Z,8.43
2022-08-20T06:51:46.399Z,7.68
2022-08-20T06:54:18.599Z,7.13
2022-08-20T06:56:45.397Z,7.82
2022-08-20T06:59:12.098Z,8.10
2022-08-20T07:01:38.785Z,8.30
2022-08-20T07:04:07.499Z,10.25
2022-08-20T07:06:34.216Z,8.93
2022-08-20T07:09:00.833Z,9.55
2022-08-20T07:11:28.824Z,9.75
2022-08-20T07:13:58.685Z,9.27
2022-08-20T07:16:25.478Z,9.25
2022-08-20T07:18:52.161Z,9.00
2022-08-20T07:21:18.758Z,7.35
2022-08-20T07:23:45.455Z,6.70
2022-08-20T07:26:13.135Z,5.57
2022-08-20T07:28:39.966Z,5.55
2022-08-20T07:31:25.313Z,5.20
2022-08-20T07:33:53.623Z,5.25
2022-08-20T07:36:20.277Z,5.22
2022-08-20T07:38:48.254Z,6.47
2022-08-20T07:41:14.938Z,6.47
2022-08-20T07:43:45.428Z,6.57
2022-08-20T07:46:17.589Z,5.82
2022-08-20T07:48:49.742Z,6.00
2022-08-20T07:51:19.128Z,4.72
2022-08-20T07:53:47.421Z,5.03
2022-08-20T07:56:21.326Z,4.40
2022-08-20T07:58:52.134Z,4.53
2022-08-20T08:01:25.846Z,5.07
2022-08-20T08:03:52.919Z,5.68
2022-08-20T08:06:29.214Z,4.85
2022-08-20T08:09:02.142Z,5.07
2022-08-20T08:11:29.748Z,4.30
2022-08-20T08:13:56.431Z,5.07
2022-08-20T08:16:23.111Z,5.68
2022-08-20T08:18:56.444Z,4.93
2022-08-20T08:21:23.553Z,4.68
2022-08-20T08:23:50.577Z,4.25
2022-08-20T08:26:18.852Z,4.38
2022-08-20T08:28:45.640Z,3.38
2022-08-20T08:31:12.747Z,3.42
2022-08-20T08:33:40.721Z,3.17
2022-08-20T08:36:11.500Z,3.10
2022-08-20T08:38:41.270Z,2.90
2022-08-20T08:41:47.992Z,2.40
2022-08-20T08:44:27.254Z,2.35
2022-08-20T08:47:25.305Z,2.28
2022-08-20T08:49:53.111Z,2.40
2022-08-20T08:52:32.286Z,2.35
2022-08-20T08:55:01.622Z,3.13
2022-08-20T08:57:28.994Z,3.58
2022-08-20T09:00:04.066Z,3.10
2022-08-20T09:02:35.198Z,3.63
2022-08-20T09:05:13.260Z,2.85
2022-08-20T09:07:40.095Z,3.10
2022-08-20T09:10:08.357Z,2.40
2022-08-20T09:12:35.065Z,2.58
2022-08-20T09:15:01.723Z,2.42
2022-08-20T09:17:28.418Z,2.10
2022-08-20T09:19:55.055Z,1.50
2022-08-20T09:22:25.466Z,1.73
2022-08-20T09:24:52.457Z,1.52
2022-08-20T09:27:19.472Z,1.60
2022-08-20T09:29:46.540Z,1.45
2022-08-20T09:32:21.395Z,1.50
2022-08-20T09:34:56.956Z,2.70
2022-08-20T09:39:51.187Z,2.63
2022-08-20T09:42:20.937Z,1.40
2022-08-20T09:44:47.642Z,1.25
2022-08-20T09:47:14.531Z,1.30
2022-08-20T09:49:41.185Z,1.10
2022-08-20T09:52:11.105Z,1.30
2022-08-20T09:54:39.887Z,1.20
2022-08-20T09:57:15.392Z,0.98
2022-08-20T09:59:42.518Z,1.08
2022-08-20T10:02:09.443Z,1.02
2022-08-20T10:04:36.053Z,1.02
2022-08-20T10:07:07.244Z,1.55
2022-08-20T10:09:35.737Z,1.30
2022-08-20T10:12:02.903Z,1.65
2022-08-20T10:14:29.613Z,2.20
2022-08-20T10:16:59.222Z,2.33
2022-08-20T10:19:27.804Z,2.90
2022-08-20T10:21:54.716Z,3.50
2022-08-20T10:24:22.109Z,3.20
2022-08-20T10:26:49.491Z,2.60
2022-08-20T10:29:16.870Z,2.10
2022-08-20T10:31:43.541Z,4.50
2022-08-20T10:34:10.109Z,4.10
2022-08-20T10:36:36.672Z,7.22
2022-08-20T10:39:03.966Z,8.40
2022-08-20T10:41:30.592Z,8.15
2022-08-20T10:43:57.272Z,8.68
2022-08-20T10:46:23.886Z,8.27
2022-08-20T10:48:50.719Z,8.57
2022-08-20T10:51:17.332Z,7.30
2022-08-20T10:53:44.022Z,8.23
2022-08-20T10:56:15.510Z,7.80
2022-08-20T10:58:42.676Z,7.97
2022-08-20T11:01:11.313Z,6.95
2022-08-20T11:03:38.068Z,7.30
2022-08-20T11:06:04.860Z,6.22
2022-08-20T11:08:33.603Z,7.72
2022-08-20T11:11:00.671Z,7.85
2022-08-20T11:13:27.507Z,7.55
2022-08-20T11:15:54.106Z,6.80
2022-08-20T11:18:20.735Z,5.90
2022-08-20T11:20:47.343Z,6.95
2022-08-20T11:23:13.944Z,5.80
2022-08-20T11:25:40.536Z,6.35
2022-08-20T11:28:07.443Z,6.45
2022-08-20T11:30:36.102Z,7.18
2022-08-20T11:33:03.932Z,6.03
2022-08-20T11:35:50.086Z,6.50
2022-08-20T11:38:18.892Z,6.60
2022-08-20T11:40:46.748Z,5.20
2022-08-20T11:43:15.635Z,5.50
2022-08-20T11:45:44.535Z,4.82
2022-08-20T11:48:11.139Z,5.90
2022-08-20T11:50:37.747Z,5.65
2022-08-20T11:53:04.401Z,5.85
2022-08-20T11:55:31.462Z,5.65
2022-08-20T11:58:00.848Z,5.70
2022-08-20T12:00:32.688Z,5.93
2022-08-20T12:03:05.263Z,5.18
2022-08-20T12:05:33.052Z,6.13
2022-08-20T12:08:03.722Z,5.57
2022-08-20T12:10:30.979Z,5.93
2022-08-20T12:12:58.016Z,3.63
2022-08-20T12:15:26.740Z,3.28
2022-08-20T12:17:53.553Z,2.60
2022-08-20T12:20:20.318Z,2.00
2022-08-20T12:22:47.004Z,1.98
2022-08-20T12:25:14.081Z,2.00
2022-08-20T12:27:41.325Z,1.92
2022-08-20T12:30:12.468Z,1.80
2022-08-20T12:32:39.770Z,2.92
2022-08-20T12:35:07.704Z,2.40
2022-08-20T12:37:34.843Z,2.58
2022-08-20T12:40:05.271Z,1.77
2022-08-20T12:42:32.066Z,1.95
2022-08-20T12:44:59.277Z,2.65
2022-08-20T12:47:31.635Z,2.40
2022-08-20T12:50:09.634Z,2.15
2022-08-20T12:52:37.206Z,1.33
2022-08-20T12:55:05.835Z,1.10
2022-08-20T12:57:38.724Z,1.15
2022-08-20T13:00:08.762Z,1.30
2022-08-20T13:02:35.774Z,1.70
2022-08-20T13:05:05.204Z,1.48
2022-08-20T13:07:33.204Z,1.88
2022-08-20T13:10:00.835Z,2.05
2022-08-20T13:12:28.114Z,1.15
2022-08-20T13:14:54.740Z,1.50
2022-08-20T13:17:32.771Z,1.48
2022-08-20T13:20:10.367Z,1.23
2022-08-20T13:22:37.349Z,1.30
2022-08-20T13:25:05.565Z,1.25
2022-08-20T13:27:32.262Z,1.30
2022-08-20T13:29:59.297Z,1.35
2022-08-20T13:32:26.580Z,1.52
2022-08-20T13:34:53.506Z,1.67
2022-08-20T13:37:25.996Z,1.15
2022-08-20T13:39:54.249Z,1.80
2022-08-20T13:42:21.351Z,1.85
2022-08-20T13:44:48.774Z,1.70
2022-08-20T13:47:18.330Z,1.38
2022-08-20T13:49:45.809Z,1.50
2022-08-20T13:52:12.813Z,1.52
2022-08-20T13:54:43.701Z,1.48
2022-08-20T13:57:19.384Z,1.25
2022-08-20T13:59:48.860Z,1.13
2022-08-20T14:02:18.071Z,1.40
2022-08-20T14:04:45.893Z,1.65
2022-08-20T14:07:18.842Z,1.33
2022-08-20T14:09:49.022Z,1.48
2022-08-20T14:12:16.535Z,1.30
2022-08-20T14:14:43.364Z,1.10
2022-08-20T14:17:31.419Z,1.73
2022-08-20T14:20:01.913Z,1.05
2022-08-20T14:22:29.364Z,1.40
2022-08-20T14:24:56.663Z,1.70
2022-08-20T14:27:27.791Z,1.27
2022-08-20T14:29:55.995Z,1.45
2022-08-20T14:32:22.679Z,1.30
2022-08-20T14:34:49.480Z,1.00
2022-08-20T14:37:19.030Z,1.13
2022-08-20T14:39:49.487Z,1.48
2022-08-20T14:42:16.213Z,2.85
2022-08-20T14:44:43.452Z,1.42
2022-08-20T14:47:24.613Z,1.52
2022-08-20T14:49:53.172Z,1.05
2022-08-20T14:52:21.116Z,1.10
2022-08-20T14:54:48.406Z,1.00
2022-08-20T14:57:17.064Z,1.63
2022-08-20T14:59:44.579Z,1.63
2022-08-20T15:02:13.921Z,1.30
2022-08-20T15:04:41.424Z,2.58
2022-08-20T15:07:21.468Z,1.75
2022-08-20T15:09:49.306Z,1.20
2022-08-20T15:12:15.920Z,1.08
2022-08-20T15:14:42.630Z,1.67
2022-08-20T15:17:11.045Z,1.15
2022-08-20T15:19:37.804Z,1.02
2022-08-20T15:22:04.466Z,1.27
2022-08-20T15:24:31.167Z,1.05
2022-08-20T15:26:57.707Z,1.17
2022-08-20T15:29:24.466Z,1.55
2022-08-20T15:31:51.431Z,1.55
2022-08-20T15:34:18.509Z,1.10
2022-08-20T15:36:45.749Z,1.20
2022-08-20T15:39:12.597Z,1.23
2022-08-20T15:41:39.181Z,1.10
2022-08-20T15:44:06.061Z,1.20
2022-08-20T15:46:36.039Z,1.83
2022-08-20T15:49:11.330Z,1.48
2022-08-20T15:51:44.939Z,1.10
2022-08-20T15:54:20.246Z,1.40
2022-08-20T16:00:08.090Z,1.38
2022-08-20T16:02:58.912Z,1.35
2022-08-20T16:06:00.824Z,1.20
2022-08-20T16:08:36.455Z,1.20
2022-08-20T16:11:07.365Z,1.27
2022-08-20T16:13:40.949Z,1.48
2022-08-20T16:16:22.366Z,0.93
2022-08-20T16:18:52.459Z,1.02
2022-08-20T16:21:29.777Z,1.20
2022-08-20T16:23:57.820Z,1.15
2022-08-20T16:26:32.079Z,0.80
2022-08-20T16:29:04.705Z,1.20
2022-08-20T16:31:44.680Z,1.00
2022-08-20T16:34:33.484Z,1.83
2022-08-20T16:37:29.131Z,1.50
2022-08-20T16:40:01.387Z,0.80
2022-08-20T16:42:36.508Z,1.45
2022-08-20T16:45:07.294Z,1.20
2022-08-20T16:47:36.235Z,0.90
2022-08-20T16:50:16.095Z,1.20
2022-08-20T16:52:45.715Z,1.20
2022-08-20T16:55:13.286Z,1.40
2022-08-20T16:57:40.139Z,1.02
2022-08-20T17:00:15.918Z,1.00
2022-08-20T17:02:54.881Z,1.00
2022-08-20T17:05:24.409Z,1.00
2022-08-20T17:08:00.108Z,0.80
2022-08-20T17:10:33.497Z,1.48
2022-08-20T17:13:19.303Z,1.00
2022-08-20T17:15:58.602Z,0.95
2022-08-20T17:18:41.390Z,0.95
2022-08-20T17:21:38.001Z,1.02
2022-08-20T17:24:16.796Z,1.10
2022-08-20T17:26:48.163Z,0.98
2022-08-20T17:29:20.314Z,1.05
2022-08-20T17:31:53.377Z,1.00
2022-08-20T17:34:27.744Z,0.60
2022-08-20T17:37:18.999Z,1.60
2022-08-20T17:39:48.351Z,0.80
2022-08-20T17:42:20.391Z,0.90
2022-08-20T17:44:53.140Z,0.90
2022-08-20T17:47:34.247Z,1.25
2022-08-20T17:50:13.305Z,1.38
2022-08-20T17:52:47.199Z,1.17
2022-08-20T17:55:14.141Z,1.00
2022-08-20T17:57:44.154Z,1.38
2022-08-20T18:00:16.213Z,0.85
2022-08-20T18:02:44.141Z,1.73
2022-08-20T18:05:20.488Z,0.98
2022-08-20T18:08:08.019Z,1.02
2022-08-20T18:10:43.485Z,1.00
2022-08-20T18:13:20.041Z,1.17
2022-08-20T18:15:53.632Z,1.38
2022-08-20T18:18:56.807Z,0.70
2022-08-20T18:21:48.467Z,0.88
2022-08-20T18:24:21.642Z,1.48
2022-08-20T18:27:20.478Z,1.10
2022-08-20T18:29:52.349Z,1.00
2022-08-20T18:32:27.690Z,1.10
2022-08-20T18:35:06.007Z,1.00
2022-08-20T18:37:33.070Z,0.85
2022-08-20T18:40:31.095Z,1.05
2022-08-20T18:43:14.808Z,1.00
2022-08-20T18:45:41.958Z,0.70
2022-08-20T18:48:21.689Z,0.98
2022-08-20T18:50:54.934Z,0.85
2022-08-20T18:53:34.391Z,0.98
2022-08-20T18:56:11.256Z,0.95
2022-08-20T18:58:59.462Z,0.80
2022-08-20T19:01:26.186Z,0.90
2022-08-20T19:03:56.211Z,0.90
2022-08-20T19:06:44.301Z,1.10
2022-08-20T19:09:30.464Z,1.30
2022-08-20T19:12:24.661Z,1.30
2022-08-20T19:14:59.983Z,1.15
2022-08-20T19:17:41.827Z,1.23
2022-08-20T19:20:14.725Z,1.10
2022-08-20T19:22:43.779Z,1.08
2022-08-20T19:25:21.714Z,1.10
2022-08-20T19:27:48.684Z,1.00
2022-08-20T19:30:15.479Z,1.30
2022-08-20T19:32:52.037Z,1.35
2022-08-20T19:35:18.867Z,1.35
2022-08-20T19:37:51.203Z,0.98
2022-08-20T19:40:27.620Z,1.40
2022-08-20T19:42:58.147Z,1.00
2022-08-20T19:45:37.164Z,1.02
2022-08-20T19:48:27.372Z,1.63
2022-08-20T19:51:13.559Z,1.30
2022-08-20T19:53:47.281Z,1.15
2022-08-20T19:56:18.556Z,1.73
2022-08-20T19:58:46.208Z,1.23
2022-08-20T20:01:21.299Z,1.67
2022-08-20T20:06:37.459Z,0.90
2022-08-20T20:09:13.487Z,1.60
2022-08-20T20:12:03.493Z,2.30
2022-08-20T20:14:34.940Z,1.65
2022-08-20T20:17:05.480Z,1.60
2022-08-20T20:19:44.964Z,1.55
2022-08-20T20:22:20.046Z,1.40
2022-08-20T20:24:57.627Z,1.40
2022-08-20T20:27:26.630Z,1.15
2022-08-20T20:30:09.375Z,1.80
2022-08-20T20:32:41.452Z,1.75
2022-08-20T20:35:08.166Z,1.60
2022-08-20T20:37:49.050Z,1.40
2022-08-20T20:40:30.930Z,0.95
2022-08-20T20:43:02.637Z,1.52
2022-08-20T20:45:34.356Z,1.30
2022-08-20T20:48:11.798Z,1.15
2022-08-20T20:50:39.011Z,1.15
2022-08-20T20:53:05.990Z,1.77
2022-08-20T20:55:36.384Z,1.67
2022-08-20T20:58:03.653Z,1.30
2022-08-20T21:00:33.868Z,1.25
2022-08-20T21:03:02.860Z,1.95
2022-08-20T21:05:32.147Z,1.58
2022-08-20T21:08:02.395Z,1.60
2022-08-20T21:10:32.475Z,1.83
2022-08-20T21:12:59.624Z,1.88
2022-08-20T21:15:27.055Z,1.40
2022-08-20T21:17:57.624Z,1.77
2022-08-20T21:20:25.017Z,1.60
2022-08-20T21:22:51.824Z,1.67
2022-08-20T21:25:20.209Z,1.30
2022-08-20T21:27:51.761Z,1.23
2022-08-20T21:30:20.211Z,1.48
2022-08-20T21:32:47.169Z,1.40
2022-08-20T21:35:15.183Z,1.08
2022-08-20T21:37:41.812Z,1.20
2022-08-20T21:40:09.748Z,1.40
2022-08-20T21:42:38.423Z,1.58
2022-08-20T21:45:08.622Z,1.20
2022-08-20T21:47:35.864Z,1.50
2022-08-20T21:50:03.004Z,1.30
2022-08-20T21:52:29.829Z,1.45
2022-08-20T21:54:56.478Z,1.52
2022-08-20T21:57:27.538Z,2.13
2022-08-20T21:59:55.469Z,1.85
2022-08-20T22:02:25.291Z,1.70
2022-08-20T22:04:53.880Z,2.05
2022-08-20T22:07:21.791Z,1.67
2022-08-20T22:09:48.456Z,2.03
2022-08-20T22:12:22.761Z,1.95
2022-08-20T22:14:49.545Z,2.60
2022-08-20T22:17:16.480Z,2.25
2022-08-20T22:19:43.215Z,2.15
2022-08-20T22:22:11.415Z,2.55
2022-08-20T22:24:38.947Z,2.08
2022-08-20T22:27:06.347Z,1.83
2022-08-20T22:29:33.074Z,2.70
2022-08-20T22:32:00.705Z,2.33
2022-08-20T22:34:31.184Z,1.77
2022-08-20T22:36:59.466Z,1.55
2022-08-20T22:39:26.362Z,1.80
2022-08-20T22:41:53.453Z,2.17
2022-08-20T22:44:20.563Z,1.90
2022-08-20T22:46:51.559Z,1.63
2022-08-20T22:49:23.800Z,1.80
2022-08-20T22:51:50.659Z,1.70
2022-08-20T22:54:22.154Z,2.20
2022-08-20T22:56:50.988Z,2.05
2022-08-20T22:59:18.674Z,1.55
2022-08-20T23:01:46.215Z,1.48
2022-08-20T23:04:21.805Z,1.60
2022-08-20T23:06:48.615Z,1.67
2022-08-20T23:09:15.276Z,1.58
2022-08-20T23:11:48.545Z,1.55
2022-08-20T23:14:15.225Z,1.80
2022-08-20T23:16:45.203Z,1.65
2022-08-20T23:19:22.406Z,1.67
2022-08-20T23:21:51.054Z,1.90
2022-08-20T23:24:18.645Z,1.90
2022-08-20T23:26:52.547Z,1.73
2022-08-20T23:29:22.320Z,1.80
2022-08-20T23:31:52.609Z,2.30
2022-08-20T23:34:19.373Z,1.60
2022-08-20T23:36:46.428Z,2.03
2022-08-20T23:39:13.616Z,1.58
2022-08-20T23:41:47.588Z,1.45
2022-08-20T23:44:26.101Z,2.38
2022-08-20T23:47:00.355Z,1.85
2022-08-20T23:49:28.412Z,1.58
2022-08-20T23:51:55.462Z,2.30
2022-08-20T23:54:22.316Z,1.65
2022-08-20T23:56:49.481Z,2.03
2022-08-20T23:59:16.263Z,2.05
